ErikBrouwer

Members
  • Content Count

    31
  • Joined

  • Last visited

Community Reputation

10 Neutral

Flight Sim Profile

  • Commercial Member
    No
  • Online Flight Organization Membership
    Other

Single Status Update

See all updates by ErikBrouwer

  1. LIFR conditions again at EHAM 070555Z VRB02KT 0300 R18C/0325N R27/0400N R18R/0400N R06/0350N FZFG VV002 M02/M03 Q1004 NOSIG #aviation